createdAt,value
2023-04-15T00:00:37.496Z,10.00
2023-04-15T00:03:41.283Z,10.38
2023-04-15T00:06:51.469Z,10.90
2023-04-15T00:09:56.224Z,11.05
2023-04-15T00:12:58.812Z,11.43
2023-04-15T00:16:02.332Z,10.00
2023-04-15T00:19:05.010Z,9.32
2023-04-15T00:22:08.273Z,10.15
2023-04-15T00:25:11.590Z,8.93
2023-04-15T00:28:14.483Z,10.23
2023-04-15T00:31:18.363Z,9.70
2023-04-15T00:34:21.945Z,9.45
2023-04-15T00:37:24.482Z,8.82
2023-04-15T00:40:27.862Z,9.55
2023-04-15T00:43:30.516Z,8.67
2023-04-15T00:46:35.944Z,8.73
2023-04-15T00:49:38.435Z,9.45
2023-04-15T00:52:41.583Z,10.07
2023-04-15T00:55:44.133Z,8.93
2023-04-15T00:58:47.085Z,8.60
2023-04-15T01:01:49.888Z,8.95
2023-04-15T01:04:52.850Z,11.05
2023-04-15T01:07:55.394Z,9.55
2023-04-15T01:10:59.033Z,8.25
2023-04-15T01:14:02.536Z,8.87
2023-04-15T01:17:05.453Z,9.82
2023-04-15T01:20:12.305Z,9.25
2023-04-15T01:23:17.006Z,9.52
2023-04-15T01:26:19.917Z,8.18
2023-04-15T01:29:23.299Z,7.87
2023-04-15T01:32:27.172Z,11.20
2023-04-15T01:35:30.263Z,8.55
2023-04-15T01:38:33.412Z,7.53
2023-04-15T01:41:36.538Z,9.05
2023-04-15T01:44:39.176Z,8.90
2023-04-15T01:47:42.096Z,8.48
2023-04-15T01:50:46.498Z,8.93
2023-04-15T01:53:50.265Z,8.13
2023-04-15T01:56:52.980Z,8.10
2023-04-15T01:59:56.229Z,9.40
2023-04-15T02:02:59.552Z,9.48
2023-04-15T02:06:02.592Z,7.22
2023-04-15T02:09:05.213Z,7.80
2023-04-15T02:12:08.222Z,9.70
2023-04-15T02:15:11.274Z,7.60
2023-04-15T02:18:14.222Z,8.77
2023-04-15T02:21:20.350Z,8.13
2023-04-15T02:24:23.183Z,8.48
2023-04-15T02:27:26.220Z,8.98
2023-04-15T02:30:29.209Z,8.20
2023-04-15T02:33:32.415Z,7.68
2023-04-15T02:36:36.261Z,8.90
2023-04-15T02:39:41.042Z,9.30
2023-04-15T02:42:44.717Z,8.77
2023-04-15T02:45:48.719Z,9.53
2023-04-15T02:48:53.337Z,10.40
2023-04-15T02:51:58.252Z,9.75
2023-04-15T02:55:02.616Z,10.20
2023-04-15T02:58:05.853Z,10.40
2023-04-15T03:01:12.166Z,10.57
2023-04-15T03:04:15.876Z,10.48
2023-04-15T03:07:18.858Z,11.57
2023-04-15T03:10:22.338Z,12.05
2023-04-15T03:13:25.409Z,12.40
2023-04-15T03:16:29.007Z,12.90
2023-04-15T03:19:33.497Z,13.60
2023-04-15T03:22:36.626Z,13.73
2023-04-15T03:25:39.991Z,14.82
2023-04-15T03:28:42.854Z,13.77
2023-04-15T03:31:46.263Z,12.87
2023-04-15T03:34:48.859Z,13.98
2023-04-15T03:37:51.792Z,15.30
2023-04-15T03:40:54.326Z,13.75
2023-04-15T03:43:57.432Z,16.23
2023-04-15T03:47:00.071Z,13.63
2023-04-15T03:50:03.089Z,14.80
2023-04-15T03:53:06.035Z,14.10
2023-04-15T03:56:08.836Z,15.70
2023-04-15T03:59:11.559Z,15.55
2023-04-15T04:02:14.555Z,14.27
2023-04-15T04:05:17.563Z,14.02
2023-04-15T04:08:21.701Z,16.85
2023-04-15T04:11:24.723Z,13.90
2023-04-15T04:14:29.804Z,18.02
2023-04-15T04:17:32.962Z,17.27
2023-04-15T04:20:35.645Z,15.15
2023-04-15T04:23:38.660Z,16.58
2023-04-15T04:26:41.544Z,15.93
2023-04-15T04:29:44.524Z,14.68
2023-04-15T04:32:47.173Z,17.03
2023-04-15T04:35:50.079Z,16.45
2023-04-15T04:38:52.655Z,15.25
2023-04-15T04:41:56.084Z,18.05
2023-04-15T04:44:58.824Z,25.88
2023-04-15T04:48:01.809Z,18.37
2023-04-15T04:51:04.411Z,19.15
2023-04-15T04:54:07.655Z,27.17
2023-04-15T04:57:10.177Z,19.42
2023-04-15T05:00:14.134Z,25.92
2023-04-15T05:03:17.411Z,16.37
2023-04-15T05:06:20.601Z,46.42
2023-04-15T05:09:23.419Z,14.93
2023-04-15T05:12:26.680Z,14.02
2023-04-15T05:15:29.278Z,18.40
2023-04-15T05:18:32.381Z,15.37
2023-04-15T05:21:35.317Z,19.45
2023-04-15T05:24:38.957Z,20.17
2023-04-15T05:27:41.575Z,14.55
2023-04-15T05:30:44.453Z,16.90
2023-04-15T05:33:47.244Z,14.80
2023-04-15T05:36:50.491Z,14.90
2023-04-15T05:39:53.167Z,14.20
2023-04-15T05:42:56.223Z,14.55
2023-04-15T05:45:58.935Z,14.80
2023-04-15T05:49:02.030Z,16.43
2023-04-15T05:52:05.768Z,15.43
2023-04-15T05:55:08.966Z,14.73
2023-04-15T05:58:11.563Z,15.18
2023-04-15T06:01:14.598Z,16.50
2023-04-15T06:04:17.839Z,17.37
2023-04-15T06:07:20.643Z,14.73
2023-04-15T06:10:23.580Z,13.85
2023-04-15T06:13:26.205Z,14.80
2023-04-15T06:16:29.080Z,13.45
2023-04-15T06:19:32.113Z,11.70
2023-04-15T06:22:34.926Z,12.30
2023-04-15T06:25:37.603Z,16.27
2023-04-15T06:28:40.788Z,14.20
2023-04-15T06:31:50.208Z,11.93
2023-04-15T06:34:53.119Z,14.17
2023-04-15T06:37:55.764Z,11.20
2023-04-15T06:40:58.679Z,11.55
2023-04-15T06:44:01.256Z,13.93
2023-04-15T06:47:04.177Z,12.57
2023-04-15T06:50:07.639Z,13.53
2023-04-15T06:53:10.551Z,14.18
2023-04-15T06:56:13.151Z,13.07
2023-04-15T06:59:16.107Z,14.00
2023-04-15T07:02:18.998Z,10.98
2023-04-15T07:05:22.076Z,10.47
2023-04-15T07:08:25.640Z,9.52
2023-04-15T07:11:28.401Z,10.82
2023-04-15T07:14:31.352Z,9.57
2023-04-15T07:17:34.397Z,8.52
2023-04-15T07:20:37.104Z,9.23
2023-04-15T07:23:40.298Z,8.63
2023-04-15T07:26:42.864Z,9.07
2023-04-15T07:29:45.733Z,7.75
2023-04-15T07:32:48.488Z,7.72
2023-04-15T07:35:51.819Z,9.00
2023-04-15T07:38:55.386Z,7.18
2023-04-15T07:41:59.108Z,7.82
2023-04-15T07:45:02.602Z,6.95
2023-04-15T07:48:06.728Z,8.52
2023-04-15T07:51:10.844Z,7.33
2023-04-15T07:54:14.082Z,5.80
2023-04-15T07:57:17.915Z,6.55
2023-04-15T08:00:20.810Z,6.28
2023-04-15T08:03:23.907Z,7.43
2023-04-15T08:06:27.511Z,5.60
2023-04-15T08:09:30.569Z,4.45
2023-04-15T08:12:33.407Z,6.50
2023-04-15T08:15:36.447Z,5.25
2023-04-15T08:18:39.436Z,5.65
2023-04-15T08:21:42.370Z,5.03
2023-04-15T08:24:45.154Z,5.25
2023-04-15T08:27:48.201Z,3.95
2023-04-15T08:30:51.242Z,4.15
2023-04-15T08:33:56.905Z,4.55
2023-04-15T08:37:00.443Z,4.40
2023-04-15T08:40:04.826Z,4.78
2023-04-15T08:43:10.168Z,4.00
2023-04-15T08:46:13.388Z,4.50
2023-04-15T08:49:18.094Z,4.05
2023-04-15T08:52:21.552Z,4.00
2023-04-15T08:55:26.692Z,3.85
2023-04-15T08:58:30.199Z,4.75
2023-04-15T09:01:33.304Z,5.78
2023-04-15T09:04:36.369Z,4.85
2023-04-15T09:07:39.470Z,3.70
2023-04-15T09:10:42.351Z,3.55
2023-04-15T09:13:45.713Z,3.08
2023-04-15T09:17:01.887Z,2.85
2023-04-15T09:20:15.299Z,2.70
2023-04-15T09:23:18.316Z,2.70
2023-04-15T09:26:31.067Z,2.95
2023-04-15T09:29:33.906Z,2.62
2023-04-15T09:32:49.654Z,2.90
2023-04-15T09:36:01.676Z,3.25
2023-04-15T09:39:04.451Z,3.27
2023-04-15T09:42:08.449Z,3.30
2023-04-15T09:45:12.140Z,3.22
2023-04-15T09:48:21.152Z,2.62
2023-04-15T09:51:35.095Z,3.35
2023-04-15T09:54:38.921Z,2.97
2023-04-15T09:57:41.870Z,2.97
2023-04-15T10:00:46.180Z,3.53
2023-04-15T10:03:49.692Z,3.03
2023-04-15T10:06:52.492Z,3.90
2023-04-15T10:09:56.606Z,3.10
2023-04-15T10:12:59.351Z,2.83
2023-04-15T10:16:15.944Z,3.30
2023-04-15T10:19:21.874Z,2.95
2023-04-15T10:22:25.981Z,2.30
2023-04-15T10:25:29.405Z,2.23
2023-04-15T10:28:32.457Z,3.12
2023-04-15T10:31:38.236Z,4.45
2023-04-15T10:34:42.152Z,3.03
2023-04-15T10:37:44.653Z,2.25
2023-04-15T10:40:47.688Z,4.50
2023-04-15T10:43:54.151Z,2.33
2023-04-15T10:46:58.914Z,3.37
2023-04-15T10:50:02.522Z,2.55
2023-04-15T10:53:05.768Z,3.62
2023-04-15T10:56:08.589Z,4.43
2023-04-15T10:59:11.738Z,2.75
2023-04-15T11:02:15.714Z,3.55
2023-04-15T11:05:20.059Z,2.25
2023-04-15T11:08:56.218Z,2.75
2023-04-15T11:12:05.600Z,4.50
2023-04-15T11:15:27.125Z,2.40
2023-04-15T11:18:31.303Z,3.22
2023-04-15T11:21:34.230Z,5.57
2023-04-15T11:24:37.824Z,7.40
2023-04-15T11:27:40.466Z,3.13
2023-04-15T11:30:43.984Z,4.90
2023-04-15T11:33:56.619Z,3.70
2023-04-15T11:36:59.551Z,3.30
2023-04-15T11:40:03.631Z,5.62
2023-04-15T11:43:09.118Z,5.40
2023-04-15T11:46:11.681Z,4.78
2023-04-15T11:49:34.985Z,5.65
2023-04-15T11:52:37.565Z,3.60
2023-04-15T11:55:46.282Z,4.53
2023-04-15T11:58:51.706Z,5.17
2023-04-15T12:01:55.107Z,4.70
2023-04-15T12:05:05.438Z,3.78
2023-04-15T12:08:08.064Z,4.40
2023-04-15T12:11:11.119Z,4.05
2023-04-15T12:14:26.813Z,4.13
2023-04-15T12:17:29.879Z,4.72
2023-04-15T12:20:52.517Z,8.38
2023-04-15T12:23:57.185Z,5.20
2023-04-15T12:27:07.311Z,4.47
2023-04-15T12:30:11.753Z,4.33
2023-04-15T12:33:14.751Z,3.83
2023-04-15T12:36:17.841Z,4.93
2023-04-15T12:39:25.375Z,5.28
2023-04-15T12:42:28.348Z,3.75
2023-04-15T12:45:30.938Z,3.87
2023-04-15T12:48:34.373Z,3.97
2023-04-15T12:51:37.711Z,2.58
2023-04-15T12:54:40.717Z,3.30
2023-04-15T12:57:43.604Z,2.70
2023-04-15T13:00:47.046Z,6.07
2023-04-15T13:03:51.233Z,3.42
2023-04-15T13:06:54.331Z,5.75
2023-04-15T13:09:57.094Z,4.50
2023-04-15T13:13:00.026Z,3.37
2023-04-15T13:16:03.012Z,3.53
2023-04-15T13:19:06.504Z,2.65
2023-04-15T13:22:09.441Z,3.70
2023-04-15T13:25:12.600Z,5.25
2023-04-15T13:28:15.142Z,2.60
2023-04-15T13:31:18.081Z,2.70
2023-04-15T13:34:21.428Z,2.87
2023-04-15T13:37:28.252Z,2.83
2023-04-15T13:40:31.606Z,2.90
2023-04-15T13:43:34.733Z,3.37
2023-04-15T13:46:39.606Z,3.07
2023-04-15T13:49:42.680Z,2.90
2023-04-15T13:52:45.392Z,4.10
2023-04-15T13:55:48.491Z,3.83
2023-04-15T13:58:52.976Z,3.33
2023-04-15T14:01:56.272Z,2.80
2023-04-15T14:04:59.281Z,3.78
2023-04-15T14:08:01.915Z,3.03
2023-04-15T14:11:04.787Z,3.00
2023-04-15T14:14:08.002Z,4.15
2023-04-15T14:17:11.120Z,3.77
2023-04-15T14:20:15.619Z,4.18
2023-04-15T14:23:20.131Z,2.85
2023-04-15T14:26:22.618Z,3.40
2023-04-15T14:29:26.389Z,4.10
2023-04-15T14:32:29.322Z,7.20
2023-04-15T14:35:32.548Z,3.00
2023-04-15T14:38:39.790Z,4.72
2023-04-15T14:41:42.659Z,3.92
2023-04-15T14:44:45.382Z,3.60
2023-04-15T14:47:48.649Z,3.40
2023-04-15T14:50:51.309Z,4.28
2023-04-15T14:53:54.261Z,4.12
2023-04-15T14:56:57.295Z,3.55
2023-04-15T15:00:00.351Z,5.60
2023-04-15T15:03:03.252Z,4.53
2023-04-15T15:06:06.301Z,6.25
2023-04-15T15:09:09.188Z,5.87
2023-04-15T15:12:12.041Z,7.72
2023-04-15T15:15:28.001Z,7.18
2023-04-15T15:18:31.597Z,7.77
2023-04-15T15:21:34.711Z,7.57
2023-04-15T15:24:37.492Z,5.75
2023-04-15T15:27:40.411Z,4.50
2023-04-15T15:30:43.263Z,4.97
2023-04-15T15:33:45.779Z,5.10
2023-04-15T15:36:48.708Z,3.95
2023-04-15T15:39:52.903Z,4.28
2023-04-15T15:42:55.750Z,4.40
2023-04-15T15:45:58.281Z,3.58
2023-04-15T15:49:03.496Z,4.07
2023-04-15T15:52:06.644Z,4.15
2023-04-15T15:55:09.495Z,5.28
2023-04-15T15:58:12.150Z,4.87
2023-04-15T16:01:15.044Z,4.45
2023-04-15T16:04:18.445Z,4.67
2023-04-15T16:07:21.286Z,4.30
2023-04-15T16:10:24.211Z,4.00
2023-04-15T16:13:26.758Z,3.50
2023-04-15T16:16:30.117Z,5.25
2023-04-15T16:19:32.759Z,55.00
2023-04-15T16:22:36.051Z,21.05
2023-04-15T16:25:38.694Z,13.27
2023-04-15T16:28:41.795Z,13.10
2023-04-15T16:31:44.501Z,5.47
2023-04-15T16:34:47.483Z,6.60
2023-04-15T16:37:50.449Z,14.10
2023-04-15T16:40:53.771Z,10.63
2023-04-15T16:43:57.548Z,8.40
2023-04-15T16:47:02.859Z,11.80
2023-04-15T16:50:05.991Z,11.00
2023-04-15T16:53:09.090Z,13.52
2023-04-15T16:56:11.653Z,14.48
2023-04-15T16:59:14.770Z,15.18
2023-04-15T17:02:17.764Z,12.30
2023-04-15T17:05:21.093Z,15.17
2023-04-15T17:08:23.880Z,12.05
2023-04-15T17:11:27.987Z,13.80
2023-04-15T17:14:31.557Z,9.38
2023-04-15T17:17:34.547Z,8.85
2023-04-15T17:20:38.698Z,6.97
2023-04-15T17:23:41.950Z,5.85
2023-04-15T17:26:44.639Z,5.93
2023-04-15T17:29:47.551Z,5.65
2023-04-15T17:32:51.680Z,6.75
2023-04-15T17:35:54.679Z,6.80
2023-04-15T17:38:57.926Z,7.82
2023-04-15T17:42:01.318Z,8.57
2023-04-15T17:45:04.074Z,13.62
2023-04-15T17:48:07.246Z,16.02
2023-04-15T17:51:10.091Z,12.50
2023-04-15T17:54:13.204Z,10.68
2023-04-15T17:57:16.674Z,9.98
2023-04-15T18:00:19.586Z,12.45
2023-04-15T18:03:24.830Z,11.35
2023-04-15T18:06:27.987Z,9.07
2023-04-15T18:09:31.252Z,9.68
2023-04-15T18:12:34.112Z,10.88
2023-04-15T18:15:37.258Z,16.12
2023-04-15T18:18:40.064Z,14.65
2023-04-15T18:21:43.016Z,16.83
2023-04-15T18:24:45.891Z,10.75
2023-04-15T18:27:49.182Z,11.12
2023-04-15T18:30:52.004Z,9.88
2023-04-15T18:33:55.208Z,9.32
2023-04-15T18:36:58.387Z,10.03
2023-04-15T18:40:01.623Z,7.72
2023-04-15T18:43:04.580Z,9.50
2023-04-15T18:46:11.777Z,8.73
2023-04-15T18:49:14.997Z,11.38
2023-04-15T18:52:18.181Z,13.37
2023-04-15T18:55:21.273Z,10.18
2023-04-15T18:58:24.391Z,10.88
2023-04-15T19:01:27.275Z,11.50
2023-04-15T19:04:30.509Z,11.00
2023-04-15T19:07:33.387Z,10.70
2023-04-15T19:10:36.611Z,12.10
2023-04-15T19:13:39.406Z,9.40
2023-04-15T19:16:42.330Z,12.88
2023-04-15T19:19:45.185Z,16.23
2023-04-15T19:22:48.577Z,18.93
2023-04-15T19:25:51.474Z,21.98
2023-04-15T19:28:56.480Z,23.30
2023-04-15T19:31:59.476Z,17.45
2023-04-15T19:35:03.214Z,17.80
2023-04-15T19:38:06.265Z,20.03
2023-04-15T19:41:10.983Z,23.40
2023-04-15T19:44:13.917Z,28.17
2023-04-15T19:47:17.267Z,27.00
2023-04-15T19:50:26.447Z,29.85
2023-04-15T19:53:29.571Z,26.57
2023-04-15T19:56:34.378Z,25.40
2023-04-15T19:59:38.015Z,17.60
2023-04-15T20:02:41.357Z,15.48
2023-04-15T20:05:45.124Z,14.15
2023-04-15T20:08:48.194Z,19.50
2023-04-15T20:12:47.848Z,20.20
2023-04-15T20:15:14.865Z,17.92
2023-04-15T20:18:18.056Z,21.87
2023-04-15T20:21:20.923Z,16.83
2023-04-15T20:24:24.603Z,15.30
2023-04-15T20:27:27.575Z,14.18
2023-04-15T20:30:30.797Z,15.52
2023-04-15T20:33:33.572Z,13.50
2023-04-15T20:36:36.563Z,10.23
2023-04-15T20:39:40.759Z,11.10
2023-04-15T20:42:43.810Z,10.98
2023-04-15T20:45:46.871Z,8.93
2023-04-15T20:48:50.109Z,10.32
2023-04-15T20:51:52.944Z,15.57
2023-04-15T20:54:56.197Z,12.03
2023-04-15T20:57:59.492Z,10.88
2023-04-15T21:01:02.534Z,9.13
2023-04-15T21:04:06.040Z,7.68
2023-04-15T21:07:10.030Z,8.45
2023-04-15T21:10:12.472Z,10.83
2023-04-15T21:13:17.690Z,13.20
2023-04-15T21:16:20.186Z,10.20
2023-04-15T21:19:22.958Z,8.75
2023-04-15T21:22:26.271Z,9.35
2023-04-15T21:25:29.264Z,9.23
2023-04-15T21:28:31.926Z,8.20
2023-04-15T21:31:34.911Z,6.37
2023-04-15T21:34:37.506Z,6.68
2023-04-15T21:37:40.362Z,6.50
2023-04-15T21:40:42.899Z,6.57
2023-04-15T21:43:45.782Z,6.00
2023-04-15T21:46:48.438Z,6.30
2023-04-15T21:49:51.534Z,7.00
2023-04-15T21:52:53.996Z,6.87
2023-04-15T21:55:56.873Z,6.37
2023-04-15T21:58:59.704Z,6.45
2023-04-15T22:02:02.633Z,6.62
2023-04-15T22:05:06.918Z,6.18
2023-04-15T22:08:09.467Z,6.90
2023-04-15T22:11:21.588Z,7.63
2023-04-15T22:14:24.125Z,7.32
2023-04-15T22:17:27.689Z,6.65
2023-04-15T22:20:30.422Z,7.22
2023-04-15T22:23:33.224Z,6.70
2023-04-15T22:26:35.842Z,6.30
2023-04-15T22:29:38.775Z,7.03
2023-04-15T22:32:41.447Z,7.53
2023-04-15T22:35:44.293Z,6.20
2023-04-15T22:38:47.305Z,5.90
2023-04-15T22:41:50.068Z,6.03
2023-04-15T22:44:52.656Z,6.50
2023-04-15T22:47:55.425Z,5.60
2023-04-15T22:50:58.116Z,7.12
2023-04-15T22:54:00.945Z,8.10
2023-04-15T22:57:03.545Z,7.60
2023-04-15T23:00:07.491Z,9.90
2023-04-15T23:03:10.415Z,8.25
2023-04-15T23:06:13.837Z,11.05
2023-04-15T23:09:16.302Z,10.88
2023-04-15T23:12:19.151Z,11.07
2023-04-15T23:15:21.760Z,11.73
2023-04-15T23:18:24.829Z,11.63
2023-04-15T23:21:28.489Z,10.93
2023-04-15T23:24:31.340Z,16.00
2023-04-15T23:27:34.523Z,12.30
2023-04-15T23:30:37.573Z,11.60
2023-04-15T23:33:40.314Z,13.40
2023-04-15T23:36:43.039Z,11.90
2023-04-15T23:39:45.768Z,13.82
2023-04-15T23:42:48.616Z,12.43
2023-04-15T23:45:51.199Z,12.35
2023-04-15T23:48:54.084Z,13.75
2023-04-15T23:51:57.532Z,12.77
2023-04-15T23:55:00.492Z,12.35
2023-04-15T23:58:02.979Z,12.53
